sensor_id;sensor_type;location;lat;lon;timestamp;temperature;humidity
66928;DHT22;59882;45.624;11.698;2022-08-03T00:01:32;27.40;54.90
66928;DHT22;59882;45.624;11.698;2022-08-03T00:03:58;27.30;55.00
66928;DHT22;59882;45.624;11.698;2022-08-03T00:06:24;27.20;55.30
66928;DHT22;59882;45.624;11.698;2022-08-03T00:08:50;27.20;55.30
66928;DHT22;59882;45.624;11.698;2022-08-03T00:11:15;27.00;55.10
66928;DHT22;59882;45.624;11.698;2022-08-03T00:13:41;27.00;55.30
66928;DHT22;59882;45.624;11.698;2022-08-03T00:16:07;26.90;55.90
66928;DHT22;59882;45.624;11.698;2022-08-03T00:18:33;26.80;56.00
66928;DHT22;59882;45.624;11.698;2022-08-03T00:20:59;26.70;55.60
66928;DHT22;59882;45.624;11.698;2022-08-03T00:23:24;26.70;56.80
66928;DHT22;59882;45.624;11.698;2022-08-03T00:25:50;26.60;56.60
66928;DHT22;59882;45.624;11.698;2022-08-03T00:28:16;26.60;56.10
66928;DHT22;59882;45.624;11.698;2022-08-03T00:30:41;26.60;56.60
66928;DHT22;59882;45.624;11.698;2022-08-03T00:33:07;26.60;56.20
66928;DHT22;59882;45.624;11.698;2022-08-03T00:35:34;26.50;56.30
66928;DHT22;59882;45.624;11.698;2022-08-03T00:38:00;26.60;56.10
66928;DHT22;59882;45.624;11.698;2022-08-03T00:40:26;26.60;56.10
66928;DHT22;59882;45.624;11.698;2022-08-03T00:42:57;26.60;55.80
66928;DHT22;59882;45.624;11.698;2022-08-03T00:45:32;26.60;56.10
66928;DHT22;59882;45.624;11.698;2022-08-03T00:47:58;26.50;55.80
66928;DHT22;59882;45.624;11.698;2022-08-03T00:50:29;26.50;55.60
66928;DHT22;59882;45.624;11.698;2022-08-03T00:52:57;26.50;56.10
66928;DHT22;59882;45.624;11.698;2022-08-03T00:55:23;26.40;56.00
66928;DHT22;59882;45.624;11.698;2022-08-03T00:57:49;26.40;55.90
66928;DHT22;59882;45.624;11.698;2022-08-03T01:00:18;26.30;56.50
66928;DHT22;59882;45.624;11.698;2022-08-03T01:02:44;26.20;56.70
66928;DHT22;59882;45.624;11.698;2022-08-03T01:05:10;26.20;56.50
66928;DHT22;59882;45.624;11.698;2022-08-03T01:07:41;26.10;56.50
66928;DHT22;59882;45.624;11.698;2022-08-03T01:15:43;26.00;56.80
66928;DHT22;59882;45.624;11.698;2022-08-03T01:18:21;26.00;56.70
66928;DHT22;59882;45.624;11.698;2022-08-03T01:20:54;25.90;56.30
66928;DHT22;59882;45.624;11.698;2022-08-03T01:32:14;25.90;55.50
66928;DHT22;59882;45.624;11.698;2022-08-03T01:34:46;25.90;55.70
66928;DHT22;59882;45.624;11.698;2022-08-03T01:37:15;25.80;55.70
66928;DHT22;59882;45.624;11.698;2022-08-03T01:39:43;25.80;55.90
66928;DHT22;59882;45.624;11.698;2022-08-03T01:42:10;25.80;55.70
66928;DHT22;59882;45.624;11.698;2022-08-03T01:44:40;25.80;55.60
66928;DHT22;59882;45.624;11.698;2022-08-03T01:47:07;25.80;55.70
66928;DHT22;59882;45.624;11.698;2022-08-03T01:49:37;25.70;55.60
66928;DHT22;59882;45.624;11.698;2022-08-03T01:52:04;25.80;55.70
66928;DHT22;59882;45.624;11.698;2022-08-03T01:54:33;25.70;55.70
66928;DHT22;59882;45.624;11.698;2022-08-03T01:57:01;25.70;55.60
66928;DHT22;59882;45.624;11.698;2022-08-03T01:59:28;25.70;55.80
66928;DHT22;59882;45.624;11.698;2022-08-03T02:01:55;25.70;55.80
66928;DHT22;59882;45.624;11.698;2022-08-03T02:04:23;25.60;55.70
66928;DHT22;59882;45.624;11.698;2022-08-03T02:06:50;25.60;55.60
66928;DHT22;59882;45.624;11.698;2022-08-03T02:09:19;25.60;55.70
66928;DHT22;59882;45.624;11.698;2022-08-03T02:11:46;25.60;55.60
66928;DHT22;59882;45.624;11.698;2022-08-03T02:14:13;25.60;55.70
66928;DHT22;59882;45.624;11.698;2022-08-03T02:16:40;25.60;55.60
66928;DHT22;59882;45.624;11.698;2022-08-03T02:19:06;25.50;55.70
66928;DHT22;59882;45.624;11.698;2022-08-03T02:21:35;25.60;55.90
66928;DHT22;59882;45.624;11.698;2022-08-03T02:24:01;25.50;55.80
66928;DHT22;59882;45.624;11.698;2022-08-03T02:26:29;25.60;55.80
66928;DHT22;59882;45.624;11.698;2022-08-03T02:28:58;25.50;55.80
66928;DHT22;59882;45.624;11.698;2022-08-03T02:31:28;25.50;55.80
66928;DHT22;59882;45.624;11.698;2022-08-03T02:34:05;25.50;55.50
66928;DHT22;59882;45.624;11.698;2022-08-03T02:36:36;25.50;55.70
66928;DHT22;59882;45.624;11.698;2022-08-03T02:39:04;25.40;55.50
66928;DHT22;59882;45.624;11.698;2022-08-03T02:41:38;25.40;55.70
66928;DHT22;59882;45.624;11.698;2022-08-03T02:44:10;25.50;55.90
66928;DHT22;59882;45.624;11.698;2022-08-03T02:46:44;25.40;55.80
66928;DHT22;59882;45.624;11.698;2022-08-03T02:49:11;25.40;56.10
66928;DHT22;59882;45.624;11.698;2022-08-03T02:51:38;25.30;56.20
66928;DHT22;59882;45.624;11.698;2022-08-03T02:54:06;25.30;56.40
66928;DHT22;59882;45.624;11.698;2022-08-03T02:56:34;25.30;56.50
66928;DHT22;59882;45.624;11.698;2022-08-03T02:59:02;25.30;56.80
66928;DHT22;59882;45.624;11.698;2022-08-03T03:01:29;25.20;56.50
66928;DHT22;59882;45.624;11.698;2022-08-03T03:03:56;25.20;56.70
66928;DHT22;59882;45.624;11.698;2022-08-03T03:06:24;25.20;56.60
66928;DHT22;59882;45.624;11.698;2022-08-03T03:08:52;25.20;56.30
66928;DHT22;59882;45.624;11.698;2022-08-03T03:11:20;25.20;56.40
66928;DHT22;59882;45.624;11.698;2022-08-03T03:13:47;25.20;56.40
66928;DHT22;59882;45.624;11.698;2022-08-03T03:16:14;25.20;56.20
66928;DHT22;59882;45.624;11.698;2022-08-03T03:18:43;25.30;56.10
66928;DHT22;59882;45.624;11.698;2022-08-03T03:21:09;25.30;55.50
66928;DHT22;59882;45.624;11.698;2022-08-03T03:23:36;25.30;55.60
66928;DHT22;59882;45.624;11.698;2022-08-03T03:26:03;25.30;55.40
66928;DHT22;59882;45.624;11.698;2022-08-03T03:28:30;25.30;55.30
66928;DHT22;59882;45.624;11.698;2022-08-03T03:30:56;25.30;55.20
66928;DHT22;59882;45.624;11.698;2022-08-03T03:33:22;25.30;55.10
66928;DHT22;59882;45.624;11.698;2022-08-03T03:35:49;25.30;55.30
66928;DHT22;59882;45.624;11.698;2022-08-03T03:38:16;25.40;55.10
66928;DHT22;59882;45.624;11.698;2022-08-03T03:40:42;25.30;55.40
66928;DHT22;59882;45.624;11.698;2022-08-03T03:43:09;25.30;55.50
66928;DHT22;59882;45.624;11.698;2022-08-03T03:45:36;25.30;55.60
66928;DHT22;59882;45.624;11.698;2022-08-03T03:48:03;25.20;55.70
66928;DHT22;59882;45.624;11.698;2022-08-03T03:50:34;25.20;55.50
66928;DHT22;59882;45.624;11.698;2022-08-03T03:53:00;25.10;55.60
66928;DHT22;59882;45.624;11.698;2022-08-03T03:55:27;25.10;55.70
66928;DHT22;59882;45.624;11.698;2022-08-03T03:57:53;25.10;55.90
66928;DHT22;59882;45.624;11.698;2022-08-03T04:00:19;25.10;55.60
66928;DHT22;59882;45.624;11.698;2022-08-03T04:02:45;25.10;55.50
66928;DHT22;59882;45.624;11.698;2022-08-03T04:05:11;25.10;55.10
66928;DHT22;59882;45.624;11.698;2022-08-03T04:08:12;25.10;55.00
66928;DHT22;59882;45.624;11.698;2022-08-03T04:14:08;25.10;55.10
66928;DHT22;59882;45.624;11.698;2022-08-03T04:16:38;25.10;55.40
66928;DHT22;59882;45.624;11.698;2022-08-03T04:19:09;25.10;55.60
66928;DHT22;59882;45.624;11.698;2022-08-03T04:21:43;25.00;55.80
66928;DHT22;59882;45.624;11.698;2022-08-03T04:24:12;25.00;55.70
66928;DHT22;59882;45.624;11.698;2022-08-03T04:26:40;24.90;55.80
66928;DHT22;59882;45.624;11.698;2022-08-03T04:29:09;24.90;56.10
66928;DHT22;59882;45.624;11.698;2022-08-03T04:31:35;24.90;56.20
66928;DHT22;59882;45.624;11.698;2022-08-03T04:34:03;24.90;56.50
66928;DHT22;59882;45.624;11.698;2022-08-03T04:36:32;24.90;56.50
66928;DHT22;59882;45.624;11.698;2022-08-03T04:39:13;24.90;56.60
66928;DHT22;59882;45.624;11.698;2022-08-03T04:41:42;24.80;56.90
66928;DHT22;59882;45.624;11.698;2022-08-03T04:44:09;24.80;57.00
66928;DHT22;59882;45.624;11.698;2022-08-03T04:46:37;24.80;57.10
66928;DHT22;59882;45.624;11.698;2022-08-03T04:49:05;24.70;57.20
66928;DHT22;59882;45.624;11.698;2022-08-03T04:51:31;24.70;57.40
66928;DHT22;59882;45.624;11.698;2022-08-03T04:53:59;24.70;57.60
66928;DHT22;59882;45.624;11.698;2022-08-03T04:56:25;24.70;57.50
66928;DHT22;59882;45.624;11.698;2022-08-03T04:58:51;24.80;57.60
66928;DHT22;59882;45.624;11.698;2022-08-03T05:01:17;24.80;57.00
66928;DHT22;59882;45.624;11.698;2022-08-03T05:03:45;24.90;57.00
66928;DHT22;59882;45.624;11.698;2022-08-03T05:06:11;24.90;56.90
66928;DHT22;59882;45.624;11.698;2022-08-03T05:08:37;24.90;57.00
66928;DHT22;59882;45.624;11.698;2022-08-03T05:11:03;25.00;56.90
66928;DHT22;59882;45.624;11.698;2022-08-03T05:13:28;25.00;57.20
66928;DHT22;59882;45.624;11.698;2022-08-03T05:15:54;25.00;57.00
66928;DHT22;59882;45.624;11.698;2022-08-03T05:18:20;25.10;56.90
66928;DHT22;59882;45.624;11.698;2022-08-03T05:20:45;25.10;56.90
66928;DHT22;59882;45.624;11.698;2022-08-03T05:23:11;25.10;56.80
66928;DHT22;59882;45.624;11.698;2022-08-03T05:25:37;25.10;57.20
66928;DHT22;59882;45.624;11.698;2022-08-03T05:28:02;25.20;57.30
66928;DHT22;59882;45.624;11.698;2022-08-03T05:30:28;25.20;56.80
66928;DHT22;59882;45.624;11.698;2022-08-03T05:32:54;25.20;56.80
66928;DHT22;59882;45.624;11.698;2022-08-03T05:35:19;25.30;56.60
66928;DHT22;59882;45.624;11.698;2022-08-03T05:37:45;25.40;56.40
66928;DHT22;59882;45.624;11.698;2022-08-03T05:40:11;25.40;56.30
66928;DHT22;59882;45.624;11.698;2022-08-03T05:42:37;25.40;56.10
66928;DHT22;59882;45.624;11.698;2022-08-03T05:45:04;25.50;55.90
66928;DHT22;59882;45.624;11.698;2022-08-03T05:47:43;25.60;56.10
66928;DHT22;59882;45.624;11.698;2022-08-03T05:50:12;25.70;55.60
66928;DHT22;59882;45.624;11.698;2022-08-03T05:52:39;25.70;55.80
66928;DHT22;59882;45.624;11.698;2022-08-03T05:55:08;25.80;55.40
66928;DHT22;59882;45.624;11.698;2022-08-03T05:57:34;25.80;55.20
66928;DHT22;59882;45.624;11.698;2022-08-03T06:00:05;25.90;55.10
66928;DHT22;59882;45.624;11.698;2022-08-03T06:02:30;25.90;55.00
66928;DHT22;59882;45.624;11.698;2022-08-03T06:04:56;26.00;54.80
66928;DHT22;59882;45.624;11.698;2022-08-03T06:07:22;26.00;54.80
66928;DHT22;59882;45.624;11.698;2022-08-03T06:09:48;26.10;55.60
66928;DHT22;59882;45.624;11.698;2022-08-03T06:12:13;26.00;56.60
66928;DHT22;59882;45.624;11.698;2022-08-03T06:14:40;26.00;57.10
66928;DHT22;59882;45.624;11.698;2022-08-03T06:17:05;26.00;56.70
66928;DHT22;59882;45.624;11.698;2022-08-03T06:19:31;26.00;56.80
66928;DHT22;59882;45.624;11.698;2022-08-03T06:21:56;26.00;56.60
66928;DHT22;59882;45.624;11.698;2022-08-03T06:24:22;26.00;57.00
66928;DHT22;59882;45.624;11.698;2022-08-03T06:26:48;26.00;56.70
66928;DHT22;59882;45.624;11.698;2022-08-03T06:29:14;26.10;56.80
66928;DHT22;59882;45.624;11.698;2022-08-03T06:31:39;26.10;56.80
66928;DHT22;59882;45.624;11.698;2022-08-03T06:34:05;26.10;57.30
66928;DHT22;59882;45.624;11.698;2022-08-03T06:36:31;26.20;57.00
66928;DHT22;59882;45.624;11.698;2022-08-03T06:38:57;26.20;56.70
66928;DHT22;59882;45.624;11.698;2022-08-03T06:41:24;26.20;56.80
66928;DHT22;59882;45.624;11.698;2022-08-03T06:43:50;26.30;57.10
66928;DHT22;59882;45.624;11.698;2022-08-03T06:46:16;26.40;57.10
66928;DHT22;59882;45.624;11.698;2022-08-03T06:48:42;26.40;56.40
66928;DHT22;59882;45.624;11.698;2022-08-03T06:51:08;26.40;56.90
66928;DHT22;59882;45.624;11.698;2022-08-03T06:53:33;26.50;57.10
66928;DHT22;59882;45.624;11.698;2022-08-03T06:55:59;26.50;56.60
66928;DHT22;59882;45.624;11.698;2022-08-03T06:58:25;26.60;56.50
66928;DHT22;59882;45.624;11.698;2022-08-03T07:00:51;26.60;56.50
66928;DHT22;59882;45.624;11.698;2022-08-03T07:03:17;26.70;56.40
66928;DHT22;59882;45.624;11.698;2022-08-03T07:05:43;26.80;56.00
66928;DHT22;59882;45.624;11.698;2022-08-03T07:08:11;26.80;56.10
66928;DHT22;59882;45.624;11.698;2022-08-03T07:10:36;26.90;55.70
66928;DHT22;59882;45.624;11.698;2022-08-03T07:13:03;26.90;55.50
66928;DHT22;59882;45.624;11.698;2022-08-03T07:15:29;27.00;55.60
66928;DHT22;59882;45.624;11.698;2022-08-03T07:17:55;27.00;55.00
66928;DHT22;59882;45.624;11.698;2022-08-03T07:20:21;27.00;54.30
66928;DHT22;59882;45.624;11.698;2022-08-03T07:22:46;27.10;54.40
66928;DHT22;59882;45.624;11.698;2022-08-03T07:25:13;27.10;53.70
66928;DHT22;59882;45.624;11.698;2022-08-03T07:27:42;27.20;53.90
66928;DHT22;59882;45.624;11.698;2022-08-03T07:30:08;27.20;54.00
66928;DHT22;59882;45.624;11.698;2022-08-03T07:32:34;27.20;53.90
66928;DHT22;59882;45.624;11.698;2022-08-03T07:35:00;27.30;53.80
66928;DHT22;59882;45.624;11.698;2022-08-03T07:37:26;27.30;53.40
66928;DHT22;59882;45.624;11.698;2022-08-03T07:39:52;27.40;50.70
66928;DHT22;59882;45.624;11.698;2022-08-03T07:42:17;27.40;51.00
66928;DHT22;59882;45.624;11.698;2022-08-03T07:44:43;27.40;50.60
66928;DHT22;59882;45.624;11.698;2022-08-03T07:47:09;27.40;50.30
66928;DHT22;59882;45.624;11.698;2022-08-03T07:49:39;27.50;50.50
66928;DHT22;59882;45.624;11.698;2022-08-03T07:52:05;27.50;51.20
66928;DHT22;59882;45.624;11.698;2022-08-03T07:54:49;27.50;51.00
66928;DHT22;59882;45.624;11.698;2022-08-03T07:57:15;27.50;50.80
66928;DHT22;59882;45.624;11.698;2022-08-03T07:59:41;27.60;49.60
66928;DHT22;59882;45.624;11.698;2022-08-03T08:02:07;27.60;47.90
66928;DHT22;59882;45.624;11.698;2022-08-03T08:04:32;27.60;48.80
66928;DHT22;59882;45.624;11.698;2022-08-03T08:06:58;27.70;48.70
66928;DHT22;59882;45.624;11.698;2022-08-03T08:09:24;27.70;48.70
66928;DHT22;59882;45.624;11.698;2022-08-03T08:11:50;27.80;49.00
66928;DHT22;59882;45.624;11.698;2022-08-03T08:14:15;27.80;49.00
66928;DHT22;59882;45.624;11.698;2022-08-03T08:16:41;27.80;49.10
66928;DHT22;59882;45.624;11.698;2022-08-03T08:19:06;27.90;49.10
66928;DHT22;59882;45.624;11.698;2022-08-03T08:21:32;27.90;49.00
66928;DHT22;59882;45.624;11.698;2022-08-03T08:23:58;28.00;47.80
66928;DHT22;59882;45.624;11.698;2022-08-03T08:26:24;28.00;48.40
66928;DHT22;59882;45.624;11.698;2022-08-03T08:28:50;28.00;48.40
66928;DHT22;59882;45.624;11.698;2022-08-03T08:31:17;28.10;48.50
66928;DHT22;59882;45.624;11.698;2022-08-03T08:33:43;28.20;47.90
66928;DHT22;59882;45.624;11.698;2022-08-03T08:36:08;28.20;48.20
66928;DHT22;59882;45.624;11.698;2022-08-03T08:38:34;28.30;47.90
66928;DHT22;59882;45.624;11.698;2022-08-03T08:41:00;28.40;47.40
66928;DHT22;59882;45.624;11.698;2022-08-03T08:43:26;28.40;47.50
66928;DHT22;59882;45.624;11.698;2022-08-03T08:45:53;28.50;47.10
66928;DHT22;59882;45.624;11.698;2022-08-03T08:48:23;28.50;47.60
66928;DHT22;59882;45.624;11.698;2022-08-03T08:50:52;28.60;47.00
66928;DHT22;59882;45.624;11.698;2022-08-03T08:53:19;28.70;46.70
66928;DHT22;59882;45.624;11.698;2022-08-03T08:55:46;28.80;47.10
66928;DHT22;59882;45.624;11.698;2022-08-03T08:58:13;28.80;46.90
66928;DHT22;59882;45.624;11.698;2022-08-03T09:00:43;28.90;46.50
66928;DHT22;59882;45.624;11.698;2022-08-03T09:03:10;28.90;46.60
66928;DHT22;59882;45.624;11.698;2022-08-03T09:05:36;28.90;45.40
66928;DHT22;59882;45.624;11.698;2022-08-03T09:08:04;29.10;45.80
66928;DHT22;59882;45.624;11.698;2022-08-03T09:10:30;29.20;45.20
66928;DHT22;59882;45.624;11.698;2022-08-03T09:12:56;29.20;45.80
66928;DHT22;59882;45.624;11.698;2022-08-03T09:15:30;29.20;45.50
66928;DHT22;59882;45.624;11.698;2022-08-03T09:17:58;29.30;46.50
66928;DHT22;59882;45.624;11.698;2022-08-03T09:20:27;29.40;46.20
66928;DHT22;59882;45.624;11.698;2022-08-03T09:23:06;29.50;46.10
66928;DHT22;59882;45.624;11.698;2022-08-03T09:25:42;29.60;45.80
66928;DHT22;59882;45.624;11.698;2022-08-03T09:28:12;29.60;45.70
66928;DHT22;59882;45.624;11.698;2022-08-03T09:30:42;29.70;44.50
66928;DHT22;59882;45.624;11.698;2022-08-03T09:33:10;29.80;44.70
66928;DHT22;59882;45.624;11.698;2022-08-03T09:35:46;29.90;45.00
66928;DHT22;59882;45.624;11.698;2022-08-03T09:38:15;29.90;44.40
66928;DHT22;59882;45.624;11.698;2022-08-03T09:40:42;29.90;44.50
66928;DHT22;59882;45.624;11.698;2022-08-03T09:43:09;29.90;44.50
66928;DHT22;59882;45.624;11.698;2022-08-03T09:45:38;30.00;44.50
66928;DHT22;59882;45.624;11.698;2022-08-03T09:51:03;30.10;44.30
66928;DHT22;59882;45.624;11.698;2022-08-03T09:53:29;30.10;44.10
66928;DHT22;59882;45.624;11.698;2022-08-03T09:55:59;30.10;43.80
66928;DHT22;59882;45.624;11.698;2022-08-03T09:58:27;30.10;43.80
66928;DHT22;59882;45.624;11.698;2022-08-03T10:03:19;30.20;44.10
66928;DHT22;59882;45.624;11.698;2022-08-03T10:05:44;30.30;43.80
66928;DHT22;59882;45.624;11.698;2022-08-03T10:08:15;30.30;43.70
66928;DHT22;59882;45.624;11.698;2022-08-03T10:10:45;30.40;43.50
66928;DHT22;59882;45.624;11.698;2022-08-03T10:13:17;30.40;43.30
66928;DHT22;59882;45.624;11.698;2022-08-03T10:15:44;30.40;44.20
66928;DHT22;59882;45.624;11.698;2022-08-03T10:18:10;30.50;43.50
66928;DHT22;59882;45.624;11.698;2022-08-03T10:20:49;30.50;43.20
66928;DHT22;59882;45.624;11.698;2022-08-03T10:23:16;30.60;42.80
66928;DHT22;59882;45.624;11.698;2022-08-03T10:25:44;30.60;42.80
66928;DHT22;59882;45.624;11.698;2022-08-03T10:28:15;30.60;42.70
66928;DHT22;59882;45.624;11.698;2022-08-03T10:30:46;30.50;43.10
66928;DHT22;59882;45.624;11.698;2022-08-03T10:33:27;30.60;43.40
66928;DHT22;59882;45.624;11.698;2022-08-03T10:35:56;30.70;42.90
66928;DHT22;59882;45.624;11.698;2022-08-03T10:38:28;30.70;42.60
66928;DHT22;59882;45.624;11.698;2022-08-03T10:40:58;30.70;42.30
66928;DHT22;59882;45.624;11.698;2022-08-03T10:43:29;30.70;42.30
66928;DHT22;59882;45.624;11.698;2022-08-03T10:45:58;30.70;42.50
66928;DHT22;59882;45.624;11.698;2022-08-03T10:48:25;30.70;43.30
66928;DHT22;59882;45.624;11.698;2022-08-03T10:50:51;30.80;43.40
66928;DHT22;59882;45.624;11.698;2022-08-03T10:53:39;30.90;43.60
66928;DHT22;59882;45.624;11.698;2022-08-03T10:59:17;31.00;41.50
66928;DHT22;59882;45.624;11.698;2022-08-03T11:01:51;31.00;42.80
66928;DHT22;59882;45.624;11.698;2022-08-03T11:04:21;31.10;42.70
66928;DHT22;59882;45.624;11.698;2022-08-03T11:09:41;31.20;41.50
66928;DHT22;59882;45.624;11.698;2022-08-03T11:12:26;31.30;42.10
66928;DHT22;59882;45.624;11.698;2022-08-03T11:14:54;31.30;42.10
66928;DHT22;59882;45.624;11.698;2022-08-03T11:17:21;31.40;42.20
66928;DHT22;59882;45.624;11.698;2022-08-03T11:19:51;31.50;42.20
66928;DHT22;59882;45.624;11.698;2022-08-03T11:22:19;31.60;41.20
66928;DHT22;59882;45.624;11.698;2022-08-03T11:27:25;31.70;41.10
66928;DHT22;59882;45.624;11.698;2022-08-03T11:35:15;31.90;40.70
66928;DHT22;59882;45.624;11.698;2022-08-03T11:40:43;32.00;41.00
66928;DHT22;59882;45.624;11.698;2022-08-03T11:46:08;32.10;39.40
66928;DHT22;59882;45.624;11.698;2022-08-03T11:48:38;32.20;38.90
66928;DHT22;59882;45.624;11.698;2022-08-03T11:51:06;32.20;38.00
66928;DHT22;59882;45.624;11.698;2022-08-03T11:53:32;32.30;38.10
66928;DHT22;59882;45.624;11.698;2022-08-03T11:56:00;32.30;38.10
66928;DHT22;59882;45.624;11.698;2022-08-03T11:58:27;32.30;37.90
66928;DHT22;59882;45.624;11.698;2022-08-03T12:01:03;32.30;38.40
66928;DHT22;59882;45.624;11.698;2022-08-03T12:03:31;32.40;38.70
66928;DHT22;59882;45.624;11.698;2022-08-03T12:05:57;32.40;38.40
66928;DHT22;59882;45.624;11.698;2022-08-03T12:08:32;32.50;38.00
66928;DHT22;59882;45.624;11.698;2022-08-03T12:11:00;32.60;38.40
66928;DHT22;59882;45.624;11.698;2022-08-03T12:13:39;32.80;38.00
66928;DHT22;59882;45.624;11.698;2022-08-03T12:16:06;32.90;37.00
66928;DHT22;59882;45.624;11.698;2022-08-03T12:18:32;32.90;37.60
66928;DHT22;59882;45.624;11.698;2022-08-03T12:21:09;33.00;37.80
66928;DHT22;59882;45.624;11.698;2022-08-03T12:23:36;33.10;36.30
66928;DHT22;59882;45.624;11.698;2022-08-03T12:26:04;33.20;36.70
66928;DHT22;59882;45.624;11.698;2022-08-03T12:28:31;33.30;36.30
66928;DHT22;59882;45.624;11.698;2022-08-03T12:31:05;33.40;35.60
66928;DHT22;59882;45.624;11.698;2022-08-03T12:33:48;33.50;36.80
66928;DHT22;59882;45.624;11.698;2022-08-03T12:36:18;33.50;36.80
66928;DHT22;59882;45.624;11.698;2022-08-03T12:38:53;33.60;37.10
66928;DHT22;59882;45.624;11.698;2022-08-03T12:41:27;33.80;36.70
66928;DHT22;59882;45.624;11.698;2022-08-03T12:43:53;34.00;36.20
66928;DHT22;59882;45.624;11.698;2022-08-03T12:46:19;34.10;36.40
66928;DHT22;59882;45.624;11.698;2022-08-03T12:49:17;34.20;36.20
66928;DHT22;59882;45.624;11.698;2022-08-03T12:54:15;34.40;34.80
66928;DHT22;59882;45.624;11.698;2022-08-03T12:57:04;34.50;34.70
66928;DHT22;59882;45.624;11.698;2022-08-03T13:01:57;34.80;34.40
66928;DHT22;59882;45.624;11.698;2022-08-03T13:04:31;35.00;33.80
66928;DHT22;59882;45.624;11.698;2022-08-03T13:07:08;35.70;32.80
66928;DHT22;59882;45.624;11.698;2022-08-03T13:09:44;37.40;30.40
66928;DHT22;59882;45.624;11.698;2022-08-03T13:12:12;39.30;29.80
66928;DHT22;59882;45.624;11.698;2022-08-03T13:14:38;40.90;27.50
66928;DHT22;59882;45.624;11.698;2022-08-03T13:17:05;42.10;24.50
66928;DHT22;59882;45.624;11.698;2022-08-03T13:19:34;43.00;24.10
66928;DHT22;59882;45.624;11.698;2022-08-03T13:24:36;44.60;23.10
66928;DHT22;59882;45.624;11.698;2022-08-03T13:27:02;45.30;23.20
66928;DHT22;59882;45.624;11.698;2022-08-03T13:29:29;45.90;22.50
66928;DHT22;59882;45.624;11.698;2022-08-03T13:31:55;46.40;21.70
66928;DHT22;59882;45.624;11.698;2022-08-03T13:34:20;46.80;20.90
66928;DHT22;59882;45.624;11.698;2022-08-03T13:36:46;47.20;20.60
66928;DHT22;59882;45.624;11.698;2022-08-03T13:39:12;47.50;20.10
66928;DHT22;59882;45.624;11.698;2022-08-03T13:41:37;47.30;19.40
66928;DHT22;59882;45.624;11.698;2022-08-03T13:44:03;47.10;19.50
66928;DHT22;59882;45.624;11.698;2022-08-03T13:46:29;47.30;20.20
66928;DHT22;59882;45.624;11.698;2022-08-03T13:48:54;47.50;20.50
66928;DHT22;59882;45.624;11.698;2022-08-03T13:51:20;47.80;20.00
66928;DHT22;59882;45.624;11.698;2022-08-03T13:53:45;48.10;20.00
66928;DHT22;59882;45.624;11.698;2022-08-03T13:56:11;48.40;19.30
66928;DHT22;59882;45.624;11.698;2022-08-03T13:58:36;48.60;19.40
66928;DHT22;59882;45.624;11.698;2022-08-03T14:01:02;48.90;19.40
66928;DHT22;59882;45.624;11.698;2022-08-03T14:03:28;49.00;19.30
66928;DHT22;59882;45.624;11.698;2022-08-03T14:05:53;49.30;18.70
66928;DHT22;59882;45.624;11.698;2022-08-03T14:08:19;49.40;19.20
66928;DHT22;59882;45.624;11.698;2022-08-03T14:10:44;49.50;18.30
66928;DHT22;59882;45.624;11.698;2022-08-03T14:13:11;49.50;18.90
66928;DHT22;59882;45.624;11.698;2022-08-03T14:15:38;49.50;18.20
66928;DHT22;59882;45.624;11.698;2022-08-03T14:18:04;49.40;18.30
66928;DHT22;59882;45.624;11.698;2022-08-03T14:20:29;49.40;18.80
66928;DHT22;59882;45.624;11.698;2022-08-03T14:22:55;49.50;18.10
66928;DHT22;59882;45.624;11.698;2022-08-03T14:25:21;49.50;18.20
66928;DHT22;59882;45.624;11.698;2022-08-03T14:27:46;49.50;18.90
66928;DHT22;59882;45.624;11.698;2022-08-03T14:30:12;49.50;18.80
66928;DHT22;59882;45.624;11.698;2022-08-03T14:32:38;49.30;18.40
66928;DHT22;59882;45.624;11.698;2022-08-03T14:35:04;49.30;19.10
66928;DHT22;59882;45.624;11.698;2022-08-03T14:37:30;49.30;18.60
66928;DHT22;59882;45.624;11.698;2022-08-03T14:39:56;49.30;19.20
66928;DHT22;59882;45.624;11.698;2022-08-03T14:42:21;49.40;18.80
66928;DHT22;59882;45.624;11.698;2022-08-03T14:44:48;49.20;18.60
66928;DHT22;59882;45.624;11.698;2022-08-03T14:47:13;49.10;18.60
66928;DHT22;59882;45.624;11.698;2022-08-03T14:49:39;49.10;18.80
66928;DHT22;59882;45.624;11.698;2022-08-03T14:52:05;49.00;18.80
66928;DHT22;59882;45.624;11.698;2022-08-03T14:54:31;49.00;18.60
66928;DHT22;59882;45.624;11.698;2022-08-03T14:56:56;48.80;18.90
66928;DHT22;59882;45.624;11.698;2022-08-03T14:59:23;48.80;18.90
66928;DHT22;59882;45.624;11.698;2022-08-03T15:01:48;48.70;19.40
66928;DHT22;59882;45.624;11.698;2022-08-03T15:04:14;48.80;18.80
66928;DHT22;59882;45.624;11.698;2022-08-03T15:06:40;48.70;19.00
66928;DHT22;59882;45.624;11.698;2022-08-03T15:09:05;48.70;18.90
66928;DHT22;59882;45.624;11.698;2022-08-03T15:11:31;48.50;19.30
66928;DHT22;59882;45.624;11.698;2022-08-03T15:13:56;48.40;19.30
66928;DHT22;59882;45.624;11.698;2022-08-03T15:16:22;48.30;19.00
66928;DHT22;59882;45.624;11.698;2022-08-03T15:18:48;48.00;18.90
66928;DHT22;59882;45.624;11.698;2022-08-03T15:21:13;47.70;19.60
66928;DHT22;59882;45.624;11.698;2022-08-03T15:23:39;47.50;19.70
66928;DHT22;59882;45.624;11.698;2022-08-03T15:26:04;47.10;19.40
66928;DHT22;59882;45.624;11.698;2022-08-03T15:28:30;46.80;19.50
66928;DHT22;59882;45.624;11.698;2022-08-03T15:30:56;46.40;20.50
66928;DHT22;59882;45.624;11.698;2022-08-03T15:33:22;46.00;20.50
66928;DHT22;59882;45.624;11.698;2022-08-03T15:35:47;45.60;20.90
66928;DHT22;59882;45.624;11.698;2022-08-03T15:38:14;45.30;21.30
66928;DHT22;59882;45.624;11.698;2022-08-03T15:40:40;45.00;21.20
66928;DHT22;59882;45.624;11.698;2022-08-03T15:43:06;44.70;21.00
66928;DHT22;59882;45.624;11.698;2022-08-03T15:45:31;44.40;21.30
66928;DHT22;59882;45.624;11.698;2022-08-03T15:47:57;44.10;21.60
66928;DHT22;59882;45.624;11.698;2022-08-03T15:50:22;44.00;21.90
66928;DHT22;59882;45.624;11.698;2022-08-03T15:52:48;43.80;21.30
66928;DHT22;59882;45.624;11.698;2022-08-03T15:55:14;43.60;21.90
66928;DHT22;59882;45.624;11.698;2022-08-03T15:57:39;43.50;22.50
66928;DHT22;59882;45.624;11.698;2022-08-03T16:00:06;43.40;22.40
66928;DHT22;59882;45.624;11.698;2022-08-03T16:02:33;43.50;21.80
66928;DHT22;59882;45.624;11.698;2022-08-03T16:04:59;43.60;22.10
66928;DHT22;59882;45.624;11.698;2022-08-03T16:07:25;43.60;21.80
66928;DHT22;59882;45.624;11.698;2022-08-03T16:10:10;43.70;21.80